createdAt,value
2024-03-12T00:02:15.897Z,61.94
2024-03-12T00:07:23.422Z,61.95
2024-03-12T00:12:26.501Z,61.95
2024-03-12T00:17:28.532Z,61.81
2024-03-12T00:22:30.542Z,61.70
2024-03-12T00:27:32.622Z,61.52
2024-03-12T00:32:34.757Z,61.93
2024-03-12T00:37:37.373Z,61.61
2024-03-12T00:42:43.063Z,61.84
2024-03-12T00:47:45.213Z,61.69
2024-03-12T00:52:47.323Z,61.68
2024-03-12T00:57:49.867Z,61.48
2024-03-12T01:02:55.118Z,61.52
2024-03-12T01:08:02.727Z,61.48
2024-03-12T01:13:11.318Z,61.38
2024-03-12T01:18:14.359Z,61.57
2024-03-12T01:23:16.473Z,61.71
2024-03-12T01:28:19.100Z,61.96
2024-03-12T01:33:21.156Z,62.00
2024-03-12T01:38:23.143Z,61.76
2024-03-12T01:43:29.242Z,61.82
2024-03-12T01:48:32.961Z,61.87
2024-03-12T01:53:35.223Z,62.22
2024-03-12T01:58:37.717Z,62.24
2024-03-12T02:03:39.740Z,62.14
2024-03-12T02:08:42.248Z,62.02
2024-03-12T02:13:44.426Z,61.96
2024-03-12T02:18:46.495Z,61.76
2024-03-12T02:23:48.585Z,61.40
2024-03-12T02:28:51.251Z,61.55
2024-03-12T02:33:53.965Z,61.39
2024-03-12T02:38:55.993Z,61.48
2024-03-12T02:43:58.012Z,61.55
2024-03-12T02:49:00.148Z,61.57
2024-03-12T02:54:06.296Z,61.65
2024-03-12T02:59:13.137Z,61.54
2024-03-12T03:04:15.125Z,61.71
2024-03-12T03:09:17.367Z,61.96
2024-03-12T03:14:19.390Z,62.06
2024-03-12T03:19:22.116Z,61.68
2024-03-12T03:24:24.201Z,61.68
2024-03-12T03:29:32.770Z,61.55
2024-03-12T03:34:34.985Z,61.62
2024-03-12T03:39:37.453Z,61.67
2024-03-12T03:44:39.511Z,61.84
2024-03-12T03:49:41.575Z,61.87
2024-03-12T03:54:43.794Z,61.82
2024-03-12T03:59:46.338Z,61.61
2024-03-12T04:04:48.409Z,61.68
2024-03-12T04:09:50.460Z,61.54
2024-03-12T04:14:52.493Z,61.52
2024-03-12T04:19:54.480Z,61.53
2024-03-12T04:24:56.504Z,61.58
2024-03-12T04:29:58.835Z,61.71
2024-03-12T04:35:00.963Z,61.79
2024-03-12T04:40:13.553Z,61.32
2024-03-12T04:45:16.175Z,61.97
2024-03-12T04:50:20.444Z,61.81
2024-03-12T04:55:22.373Z,61.94
2024-03-12T05:00:24.498Z,62.23
2024-03-12T05:05:27.161Z,61.98
2024-03-12T05:10:29.385Z,61.91
2024-03-12T05:15:32.261Z,62.08
2024-03-12T05:20:37.495Z,62.16
2024-03-12T05:25:43.586Z,62.06
2024-03-12T05:30:45.635Z,61.88
2024-03-12T05:35:52.648Z,61.92
2024-03-12T05:41:10.143Z,61.71
2024-03-12T05:46:31.038Z,61.87
2024-03-12T05:51:39.285Z,62.14
2024-03-12T05:56:41.459Z,62.07
2024-03-12T06:01:43.686Z,62.15
2024-03-12T06:06:46.825Z,62.20
2024-03-12T06:11:48.875Z,62.24
2024-03-12T06:16:51.011Z,62.19
2024-03-12T06:21:53.105Z,62.28
2024-03-12T06:26:55.680Z,62.15
2024-03-12T06:31:58.768Z,61.99
2024-03-12T06:37:00.854Z,61.75
2024-03-12T06:42:08.523Z,61.71
2024-03-12T06:47:11.640Z,61.69
2024-03-12T06:52:13.683Z,61.65
2024-03-12T06:57:18.326Z,61.43
2024-03-12T07:02:20.729Z,61.37
2024-03-12T07:07:24.664Z,61.07
2024-03-12T07:12:26.899Z,61.21
2024-03-12T07:17:31.544Z,61.13
2024-03-12T07:22:33.933Z,61.19
2024-03-12T07:27:36.472Z,61.15
2024-03-12T07:32:39.232Z,61.13
2024-03-12T07:37:42.612Z,61.19
2024-03-12T07:42:45.975Z,61.44
2024-03-12T07:47:48.213Z,61.51
2024-03-12T07:52:50.380Z,61.68
2024-03-12T07:57:52.414Z,61.83
2024-03-12T08:02:54.748Z,61.86
2024-03-12T08:07:56.746Z,61.54
2024-03-12T08:12:58.813Z,61.16
2024-03-12T08:18:10.118Z,60.97
2024-03-12T08:23:21.052Z,60.63
2024-03-12T08:28:23.180Z,60.49
2024-03-12T08:33:25.449Z,60.71
2024-03-12T08:38:29.896Z,60.56
2024-03-12T08:43:32.024Z,60.27
2024-03-12T08:48:35.168Z,60.17
2024-03-12T08:53:37.265Z,59.95
2024-03-12T08:58:39.334Z,59.65
2024-03-12T09:03:46.509Z,59.55
2024-03-12T09:08:50.785Z,59.24
2024-03-12T09:13:53.034Z,58.79
2024-03-12T09:18:55.158Z,58.54
2024-03-12T09:24:01.987Z,58.31
2024-03-12T09:29:07.208Z,58.14
2024-03-12T09:34:13.601Z,57.42
2024-03-12T09:39:18.400Z,57.56
2024-03-12T09:44:23.903Z,56.54
2024-03-12T09:49:26.744Z,57.08
2024-03-12T09:54:29.750Z,56.61
2024-03-12T09:59:33.006Z,56.47
2024-03-12T10:04:36.075Z,55.73
2024-03-12T10:09:39.291Z,54.01
2024-03-12T10:14:45.870Z,53.98
2024-03-12T10:19:50.465Z,53.96
2024-03-12T10:24:53.417Z,53.38
2024-03-12T10:29:55.477Z,53.46
2024-03-12T10:34:57.725Z,52.87
2024-03-12T10:40:16.904Z,49.38
2024-03-12T10:45:19.489Z,51.77
2024-03-12T10:50:24.379Z,51.24
2024-03-12T10:55:26.606Z,51.04
2024-03-12T11:00:31.630Z,50.33
2024-03-12T11:05:33.969Z,50.23
2024-03-12T11:10:38.208Z,49.00
2024-03-12T11:15:41.474Z,49.14
2024-03-12T11:20:44.485Z,48.55
2024-03-12T11:25:50.558Z,49.31
2024-03-12T11:30:56.033Z,49.13
2024-03-12T11:35:58.750Z,48.57
2024-03-12T11:41:03.950Z,48.96
2024-03-12T11:46:10.029Z,48.98
2024-03-12T11:51:15.292Z,48.65
2024-03-12T11:56:24.797Z,48.49
2024-03-12T12:01:33.342Z,48.98
2024-03-12T12:06:37.144Z,49.06
2024-03-12T12:11:40.214Z,48.67
2024-03-12T12:16:43.320Z,48.64
2024-03-12T12:21:46.606Z,48.46
2024-03-12T12:26:49.035Z,48.34
2024-03-12T12:31:54.247Z,47.85
2024-03-12T12:36:57.348Z,46.64
2024-03-12T12:42:00.464Z,46.92
2024-03-12T12:47:04.296Z,46.71
2024-03-12T12:52:06.536Z,46.24
2024-03-12T12:57:11.996Z,45.78
2024-03-12T13:02:16.114Z,45.68
2024-03-12T13:07:32.435Z,44.21
2024-03-12T13:12:34.786Z,45.13
2024-03-12T13:17:36.874Z,45.46
2024-03-12T13:22:39.142Z,44.94
2024-03-12T13:27:42.007Z,44.41
2024-03-12T13:32:44.492Z,44.06
2024-03-12T13:37:46.932Z,43.32
2024-03-12T13:42:49.507Z,41.87
2024-03-12T13:47:51.788Z,43.80
2024-03-12T13:52:54.023Z,44.10
2024-03-12T13:57:57.605Z,43.67
2024-03-12T14:03:01.834Z,42.09
2024-03-12T14:08:04.418Z,43.97
2024-03-12T14:13:06.730Z,44.25
2024-03-12T14:18:09.818Z,43.89
2024-03-12T14:23:11.986Z,44.00
2024-03-12T14:28:14.142Z,43.95
2024-03-12T14:33:16.653Z,43.67
2024-03-12T14:38:19.315Z,44.15
2024-03-12T14:43:21.481Z,44.32
2024-03-12T14:48:23.570Z,44.81
2024-03-12T14:53:25.699Z,44.83
2024-03-12T14:58:28.766Z,44.53
2024-03-12T15:03:31.824Z,44.60
2024-03-12T15:08:34.022Z,44.34
2024-03-12T15:13:37.410Z,44.96
2024-03-12T15:18:40.793Z,45.31
2024-03-12T15:23:42.924Z,44.77
2024-03-12T15:28:44.949Z,45.00
2024-03-12T15:33:47.271Z,45.52
2024-03-12T15:38:49.688Z,45.19
2024-03-12T15:43:51.799Z,45.75
2024-03-12T15:48:54.358Z,45.58
2024-03-12T15:53:56.751Z,45.31
2024-03-12T15:58:59.083Z,44.95
2024-03-12T16:04:01.423Z,45.08
2024-03-12T16:09:03.821Z,44.75
2024-03-12T16:14:12.592Z,45.49
2024-03-12T16:19:17.875Z,45.95
2024-03-12T16:24:20.125Z,46.06
2024-03-12T16:29:22.361Z,46.51
2024-03-12T16:34:27.617Z,46.74
2024-03-12T16:39:30.121Z,46.76
2024-03-12T16:44:32.254Z,46.89
2024-03-12T16:49:39.377Z,47.36
2024-03-12T16:54:41.681Z,47.45
2024-03-12T16:59:44.233Z,47.51
2024-03-12T17:04:46.644Z,48.11
2024-03-12T17:09:48.970Z,48.29
2024-03-12T17:14:51.318Z,48.40
2024-03-12T17:19:53.864Z,48.54
2024-03-12T17:24:56.820Z,48.60
2024-03-12T17:30:02.602Z,49.02
2024-03-12T17:35:07.207Z,49.12
2024-03-12T17:40:15.324Z,49.32
2024-03-12T17:45:17.974Z,49.43
2024-03-12T17:50:22.052Z,49.48
2024-03-12T17:55:24.647Z,49.63
2024-03-12T18:00:27.185Z,50.08
2024-03-12T18:05:29.449Z,50.31
2024-03-12T18:10:34.418Z,50.77
2024-03-12T18:15:36.979Z,50.90
2024-03-12T18:20:42.456Z,51.09
2024-03-12T18:25:44.722Z,51.20
2024-03-12T18:30:47.091Z,51.17
2024-03-12T18:35:51.249Z,51.45
2024-03-12T18:40:54.735Z,51.82
2024-03-12T18:45:56.861Z,52.27
2024-03-12T18:50:59.763Z,52.78
2024-03-12T18:56:02.268Z,53.58
2024-03-12T19:01:05.245Z,54.30
2024-03-12T19:06:19.057Z,55.28
2024-03-12T19:11:28.320Z,55.78
2024-03-12T19:16:35.700Z,58.00
2024-03-12T19:21:38.075Z,56.93
2024-03-12T19:26:40.516Z,57.46
2024-03-12T19:31:43.368Z,57.76
2024-03-12T19:36:47.431Z,58.08
2024-03-12T19:41:49.880Z,58.10
2024-03-12T19:46:52.132Z,58.30
2024-03-12T19:51:54.428Z,58.45
2024-03-12T19:56:58.867Z,58.77
2024-03-12T20:02:01.199Z,58.78
2024-03-12T20:07:03.592Z,59.09
2024-03-12T20:12:08.910Z,59.34
2024-03-12T20:17:11.049Z,59.48
2024-03-12T20:22:13.134Z,59.74
2024-03-12T20:27:15.344Z,60.04
2024-03-12T20:32:17.781Z,60.00
2024-03-12T20:37:21.297Z,59.59
2024-03-12T20:42:24.123Z,59.62
2024-03-12T20:47:26.218Z,59.87
2024-03-12T20:52:29.008Z,60.31
2024-03-12T20:57:32.454Z,60.58
2024-03-12T21:02:34.472Z,61.07
2024-03-12T21:07:36.578Z,61.14
2024-03-12T21:12:40.371Z,60.85
2024-03-12T21:17:44.366Z,60.97
2024-03-12T21:22:46.612Z,60.80
2024-03-12T21:27:50.187Z,60.71
2024-03-12T21:32:53.981Z,60.80
2024-03-12T21:37:57.008Z,61.04
2024-03-12T21:43:00.040Z,60.96
2024-03-12T21:48:02.720Z,60.99
2024-03-12T21:53:09.378Z,60.78
2024-03-12T21:58:11.976Z,60.59
2024-03-12T22:03:14.230Z,60.38
2024-03-12T22:08:17.385Z,60.52
2024-03-12T22:13:27.957Z,60.91
2024-03-12T22:18:35.832Z,61.47
2024-03-12T22:23:40.436Z,61.41
2024-03-12T22:28:43.233Z,61.52
2024-03-12T22:33:45.266Z,62.04
2024-03-12T22:38:50.814Z,62.02
2024-03-12T22:43:53.208Z,62.17
2024-03-12T22:48:55.580Z,62.53
2024-03-12T22:53:57.775Z,62.58
2024-03-12T22:59:00.984Z,62.58
2024-03-12T23:04:05.900Z,62.76
2024-03-12T23:09:09.315Z,63.30
2024-03-12T23:14:11.319Z,63.21
2024-03-12T23:19:14.438Z,63.31
2024-03-12T23:24:16.622Z,63.14
2024-03-12T23:29:18.614Z,63.16
2024-03-12T23:34:22.429Z,63.14
2024-03-12T23:39:26.390Z,63.04
2024-03-12T23:44:36.246Z,63.19
2024-03-12T23:49:38.527Z,63.22
2024-03-12T23:54:42.087Z,63.37
2024-03-12T23:59:45.914Z,63.54
